Time;durP1;ratioP1;P1;durP2;ratioP2;P2;SDS_P1;SDS_P2;PMS_P1;PMS_P2;Temp;Humidity;BMP_temperature;BMP_pressure;BME280_temperature;BME280_humidity;BME280_pressure;Samples;Min_cycle;Max_cycle;Signal;HPM_P1;HPM_P2
2022/08/23 00:01:06;;;;;;;7.28;2.53;;;;;;;;;;5052215;28;20051;-59
2022/08/23 00:03:32;;;;;;;3.45;2.38;;;;;;;;;;5051829;28;20528;-59
2022/08/23 00:05:58;;;;;;;7.30;2.20;;;;;;;;;;5052463;28;20115;-59
2022/08/23 00:08:24;;;;;;;3.60;2.45;;;;;;;;;;5052911;28;20789;-59
2022/08/23 00:10:50;;;;;;;5.72;2.42;;;;;;;;;;5052555;28;20103;-59
2022/08/23 00:13:16;;;;;;;5.40;2.10;;;;;;;;;;5052730;28;20100;-58
2022/08/23 00:15:42;;;;;;;3.97;2.00;;;;;;;;;;5053006;28;20112;-58
2022/08/23 00:18:08;;;;;;;5.57;2.75;;;;;;;;;;5052004;28;20025;-58
2022/08/23 00:20:34;;;;;;;4.35;2.90;;;;;;;;;;5051896;28;20029;-58
2022/08/23 00:23:00;;;;;;;5.05;2.97;;;;;;;;;;5042992;28;20112;-59
2022/08/23 00:25:26;;;;;;;7.90;3.45;;;;;;;;;;5052102;28;20113;-58
2022/08/23 00:27:52;;;;;;;7.53;3.63;;;;;;;;;;5051961;28;20033;-58
2022/08/23 00:30:18;;;;;;;6.80;3.22;;;;;;;;;;5050664;28;20025;-59
2022/08/23 00:32:44;;;;;;;8.07;3.05;;;;;;;;;;5048059;28;20260;-58
2022/08/23 00:35:12;;;;;;;6.55;2.88;;;;;;;;;;5052138;28;20087;-58
2022/08/23 00:37:38;;;;;;;6.57;2.40;;;;;;;;;;5052351;28;20025;-59
2022/08/23 00:40:05;;;;;;;4.97;2.50;;;;;;;;;;5052248;28;20382;-59
2022/08/23 00:48:23;;;;;;;6.90;2.53;;;;;;;;;;5052144;28;20035;-59
2022/08/23 00:51:00;;;;;;;5.18;2.45;;;;;;;;;;5049724;28;20033;-58
2022/08/23 00:53:28;;;;;;;5.45;2.58;;;;;;;;;;5052138;28;20029;-59
2022/08/23 00:55:56;;;;;;;8.55;2.97;;;;;;;;;;5051417;28;20499;-58
2022/08/23 00:58:22;;;;;;;7.88;2.60;;;;;;;;;;5052000;28;20472;-59
2022/08/23 01:00:49;;;;;;;4.85;2.97;;;;;;;;;;5051917;28;20031;-59
2022/08/23 01:03:16;;;;;;;6.95;2.67;;;;;;;;;;5051902;28;20071;-59
2022/08/23 01:05:49;;;;;;;6.50;2.67;;;;;;;;;;5050131;28;20047;-59
2022/08/23 01:08:15;;;;;;;;;;;;;;;;;;5052423;28;20053;-59
2022/08/23 01:10:46;;;;;;;3.40;2.55;;;;;;;;;;5051035;28;19909;-59
2022/08/23 01:13:14;;;;;;;7.78;2.60;;;;;;;;;;5051676;28;20037;-59
2022/08/23 01:15:43;;;;;;;3.85;2.88;;;;;;;;;;5048864;28;20444;-59
2022/08/23 01:18:10;;;;;;;6.50;3.00;;;;;;;;;;5051472;28;20021;-59
2022/08/23 01:20:43;;;;;;;5.18;3.40;;;;;;;;;;5049890;28;20116;-59
2022/08/23 01:23:25;;;;;;;6.60;2.80;;;;;;;;;;5051045;28;20036;-59
2022/08/23 01:25:51;;;;;;;4.85;2.78;;;;;;;;;;5051859;28;20032;-59
2022/08/23 01:28:17;;;;;;;7.65;3.03;;;;;;;;;;5050812;28;20099;-59
2022/08/23 01:30:45;;;;;;;5.05;2.35;;;;;;;;;;5041360;28;20500;-59
2022/08/23 01:33:11;;;;;;;6.88;2.53;;;;;;;;;;5050388;28;20025;-60
2022/08/23 01:35:39;;;;;;;3.70;2.45;;;;;;;;;;5051344;28;20035;-59
2022/08/23 01:38:06;;;;;;;4.00;2.90;;;;;;;;;;5049636;28;20107;-60
2022/08/23 01:40:32;;;;;;;6.57;3.00;;;;;;;;;;5050571;28;20512;-59
2022/08/23 01:42:59;;;;;;;6.10;3.53;;;;;;;;;;5051468;28;20372;-59
2022/08/23 01:45:26;;;;;;;5.72;2.92;;;;;;;;;;5050424;28;20045;-59
2022/08/23 01:47:52;;;;;;;8.02;3.30;;;;;;;;;;5050977;28;20032;-59
2022/08/23 01:50:18;;;;;;;7.47;2.67;;;;;;;;;;5050295;28;20519;-59
2022/08/23 01:52:44;;;;;;;9.90;3.55;;;;;;;;;;5049578;28;20033;-59
2022/08/23 01:55:10;;;;;;;5.15;2.60;;;;;;;;;;5051475;28;20377;-59
2022/08/23 01:57:36;;;;;;;3.50;2.45;;;;;;;;;;5049796;28;20029;-60
2022/08/23 02:00:03;;;;;;;5.22;2.85;;;;;;;;;;5050235;28;20033;-59
2022/08/23 02:02:29;;;;;;;7.60;3.13;;;;;;;;;;5051011;28;20103;-59
2022/08/23 02:04:56;;;;;;;7.15;2.85;;;;;;;;;;5051466;28;20025;-59
2022/08/23 02:07:25;;;;;;;10.55;3.80;;;;;;;;;;5051159;28;20036;-59
2022/08/23 02:09:51;;;;;;;4.80;2.80;;;;;;;;;;5049346;28;20060;-59
2022/08/23 02:12:17;;;;;;;6.60;3.03;;;;;;;;;;5051056;28;20036;-59
2022/08/23 02:14:43;;;;;;;7.80;3.03;;;;;;;;;;5050587;28;20588;-59
2022/08/23 02:17:09;;;;;;;10.70;3.05;;;;;;;;;;5049515;28;20035;-59
2022/08/23 02:19:36;;;;;;;14.38;3.63;;;;;;;;;;5038105;28;20116;-60
2022/08/23 02:22:04;;;;;;;4.38;2.90;;;;;;;;;;5049781;28;20065;-59
2022/08/23 02:24:30;;;;;;;10.23;3.22;;;;;;;;;;5042770;28;20052;-59
2022/08/23 02:26:57;;;;;;;9.65;3.58;;;;;;;;;;5051023;28;20052;-59
2022/08/23 02:29:24;;;;;;;7.65;3.53;;;;;;;;;;5050551;28;20043;-60
2022/08/23 02:31:50;;;;;;;10.32;3.30;;;;;;;;;;5050546;28;20447;-59
2022/08/23 02:34:17;;;;;;;6.78;3.42;;;;;;;;;;5050128;28;20057;-59
2022/08/23 02:36:43;;;;;;;8.93;3.10;;;;;;;;;;5051133;28;20043;-59
2022/08/23 02:39:10;;;;;;;6.57;2.92;;;;;;;;;;5048250;28;20120;-59
2022/08/23 02:41:37;;;;;;;6.78;3.60;;;;;;;;;;5052285;28;20031;-59
2022/08/23 02:44:03;;;;;;;5.45;2.88;;;;;;;;;;5054710;28;20025;-59
2022/08/23 02:46:29;;;;;;;9.30;3.22;;;;;;;;;;5054184;28;20472;-59
2022/08/23 02:48:55;;;;;;;9.77;3.40;;;;;;;;;;5054490;28;20066;-59
2022/08/23 02:51:21;;;;;;;6.28;3.17;;;;;;;;;;5054360;28;20040;-59
2022/08/23 02:53:47;;;;;;;8.80;3.35;;;;;;;;;;5047849;28;20055;-59
2022/08/23 02:56:13;;;;;;;9.10;2.92;;;;;;;;;;5054514;28;20119;-59
2022/08/23 02:58:40;;;;;;;5.40;2.92;;;;;;;;;;5054331;28;20104;-59
2022/08/23 03:01:06;;;;;;;5.18;2.70;;;;;;;;;;5054084;28;20028;-59
2022/08/23 03:03:32;;;;;;;4.88;2.95;;;;;;;;;;5054089;28;20540;-59
2022/08/23 03:05:58;;;;;;;6.65;2.80;;;;;;;;;;5054323;28;20029;-60
2022/08/23 03:08:24;;;;;;;7.53;3.42;;;;;;;;;;5052453;28;20455;-59
2022/08/23 03:10:52;;;;;;;5.93;3.30;;;;;;;;;;5053849;28;20037;-60
2022/08/23 03:13:18;;;;;;;10.25;3.92;;;;;;;;;;5053989;28;20029;-59
2022/08/23 03:15:44;;;;;;;5.35;3.40;;;;;;;;;;5050464;28;20021;-59
2022/08/23 03:18:11;;;;;;;5.57;3.25;;;;;;;;;;5053712;28;20407;-59
2022/08/23 03:20:39;;;;;;;7.30;3.08;;;;;;;;;;5053330;28;20029;-59
2022/08/23 03:23:05;;;;;;;6.93;3.70;;;;;;;;;;5053865;28;20703;-59
2022/08/23 03:25:31;;;;;;;9.68;3.85;;;;;;;;;;5052076;28;22951;-60
2022/08/23 03:27:57;;;;;;;8.10;3.42;;;;;;;;;;5053909;28;20041;-59
2022/08/23 03:30:23;;;;;;;8.05;3.53;;;;;;;;;;5053598;28;20053;-59
2022/08/23 03:32:49;;;;;;;7.72;3.00;;;;;;;;;;5050861;28;20036;-59
2022/08/23 03:35:15;;;;;;;5.60;3.20;;;;;;;;;;5053938;28;20060;-60
2022/08/23 03:37:41;;;;;;;6.47;3.25;;;;;;;;;;5053395;28;20082;-61
2022/08/23 03:40:07;;;;;;;6.47;2.95;;;;;;;;;;5052777;28;20029;-59
2022/08/23 03:42:33;;;;;;;5.00;3.28;;;;;;;;;;5051109;28;20032;-59
2022/08/23 03:44:59;;;;;;;6.05;3.00;;;;;;;;;;5053438;28;20027;-59
2022/08/23 03:47:26;;;;;;;8.27;3.35;;;;;;;;;;5053227;28;20380;-59
2022/08/23 03:49:52;;;;;;;10.80;3.58;;;;;;;;;;5053379;28;20563;-59
2022/08/23 03:52:18;;;;;;;6.70;3.40;;;;;;;;;;5052913;28;20035;-59
2022/08/23 03:54:44;;;;;;;5.18;2.80;;;;;;;;;;5052758;28;20029;-59
2022/08/23 03:57:09;;;;;;;6.38;3.40;;;;;;;;;;5051671;28;20358;-59
2022/08/23 03:59:37;;;;;;;8.35;2.97;;;;;;;;;;5053348;28;20040;-59
2022/08/23 04:02:04;;;;;;;5.78;3.55;;;;;;;;;;5051121;28;20484;-59
2022/08/23 04:04:30;;;;;;;7.80;3.33;;;;;;;;;;5053424;28;20025;-59
2022/08/23 04:06:56;;;;;;;7.93;3.35;;;;;;;;;;5047339;28;20025;-59
2022/08/23 04:09:22;;;;;;;7.65;3.60;;;;;;;;;;5051823;28;20119;-59
2022/08/23 04:11:48;;;;;;;9.00;3.22;;;;;;;;;;5047243;28;20037;-59
2022/08/23 04:14:14;;;;;;;5.57;2.80;;;;;;;;;;5046104;28;20485;-58
2022/08/23 04:16:40;;;;;;;7.20;3.08;;;;;;;;;;5050491;28;20021;-57
2022/08/23 04:19:08;;;;;;;9.38;3.35;;;;;;;;;;5052285;28;20114;-59
2022/08/23 04:21:34;;;;;;;11.40;3.28;;;;;;;;;;5048598;28;20025;-58
2022/08/23 04:24:01;;;;;;;7.43;3.15;;;;;;;;;;5044953;28;20129;-59
2022/08/23 04:26:27;;;;;;;8.98;3.45;;;;;;;;;;5050136;28;20036;-59
2022/08/23 04:28:53;;;;;;;12.50;4.15;;;;;;;;;;5051254;28;20362;-58
2022/08/23 04:31:19;;;;;;;8.38;3.72;;;;;;;;;;5043314;28;20036;-59
2022/08/23 04:33:46;;;;;;;8.38;3.70;;;;;;;;;;5048442;28;20029;-58
2022/08/23 04:36:12;;;;;;;12.00;4.15;;;;;;;;;;5043076;28;20033;-59
2022/08/23 04:38:38;;;;;;;6.85;4.15;;;;;;;;;;5049805;28;20032;-59
2022/08/23 04:43:49;;;;;;;10.90;3.78;;;;;;;;;;5049097;28;20449;-59
2022/08/23 04:46:15;;;;;;;9.95;3.58;;;;;;;;;;5051197;28;20120;-59
2022/08/23 04:48:42;;;;;;;12.38;4.32;;;;;;;;;;5051457;28;20079;-59
2022/08/23 04:51:08;;;;;;;9.32;4.28;;;;;;;;;;5049429;28;20025;-58
2022/08/23 04:53:34;;;;;;;10.90;4.07;;;;;;;;;;5049688;28;20032;-59
2022/08/23 04:56:01;;;;;;;9.05;4.22;;;;;;;;;;5049800;28;20115;-59
2022/08/23 04:58:28;;;;;;;11.55;4.50;;;;;;;;;;5047635;28;20060;-59
2022/08/23 05:00:54;;;;;;;8.68;3.97;;;;;;;;;;5050100;28;20036;-58
2022/08/23 05:03:20;;;;;;;11.93;4.00;;;;;;;;;;5051023;28;20024;-59
2022/08/23 05:05:46;;;;;;;7.03;3.78;;;;;;;;;;5065080;28;20037;-59
2022/08/23 05:08:12;;;;;;;9.27;3.75;;;;;;;;;;5051107;28;20041;-59
2022/08/23 05:10:38;;;;;;;10.15;3.90;;;;;;;;;;5048949;28;20037;-59
2022/08/23 05:13:04;;;;;;;9.15;3.65;;;;;;;;;;5047667;28;20033;-59
2022/08/23 05:15:30;;;;;;;8.57;3.67;;;;;;;;;;5048525;28;20115;-59
2022/08/23 05:17:56;;;;;;;7.43;3.55;;;;;;;;;;5049891;28;20047;-59
2022/08/23 05:20:22;;;;;;;13.65;4.00;;;;;;;;;;5050534;28;20024;-59
2022/08/23 05:22:49;;;;;;;6.47;3.25;;;;;;;;;;5047406;28;20036;-59
2022/08/23 05:25:15;;;;;;;7.03;3.72;;;;;;;;;;5045784;28;20428;-60
2022/08/23 05:27:41;;;;;;;7.75;3.47;;;;;;;;;;5048776;28;20031;-58
2022/08/23 05:30:07;;;;;;;12.75;4.68;;;;;;;;;;5046483;28;20031;-59
2022/08/23 05:32:33;;;;;;;9.85;4.03;;;;;;;;;;5051643;28;20079;-59
2022/08/23 05:34:59;;;;;;;9.23;3.95;;;;;;;;;;5050384;28;20075;-59
2022/08/23 05:37:25;;;;;;;10.23;3.45;;;;;;;;;;5050844;28;20037;-59
2022/08/23 05:39:51;;;;;;;9.40;3.58;;;;;;;;;;5049272;28;20025;-59
2022/08/23 05:42:17;;;;;;;6.85;3.78;;;;;;;;;;5051293;28;20071;-59
2022/08/23 05:44:44;;;;;;;8.30;3.22;;;;;;;;;;5048037;28;20052;-59
2022/08/23 05:47:11;;;;;;;6.63;3.72;;;;;;;;;;5048477;28;20460;-59
2022/08/23 05:49:38;;;;;;;5.68;3.05;;;;;;;;;;5051300;28;20100;-59
2022/08/23 05:52:04;;;;;;;8.57;3.22;;;;;;;;;;5050954;28;20025;-59
2022/08/23 05:54:31;;;;;;;9.02;3.83;;;;;;;;;;5051305;28;20127;-59
2022/08/23 05:56:57;;;;;;;5.13;3.15;;;;;;;;;;5051364;28;20434;-59
2022/08/23 05:59:23;;;;;;;7.05;3.42;;;;;;;;;;5051236;28;20021;-59
2022/08/23 06:01:49;;;;;;;6.95;3.42;;;;;;;;;;5050834;28;20028;-59
2022/08/23 06:04:15;;;;;;;6.25;3.25;;;;;;;;;;5047559;28;20037;-59
2022/08/23 06:06:42;;;;;;;10.48;3.72;;;;;;;;;;5050169;28;20136;-58
2022/08/23 06:09:11;;;;;;;8.75;3.35;;;;;;;;;;5049511;28;20045;-59
2022/08/23 06:11:37;;;;;;;6.30;2.95;;;;;;;;;;5049176;28;20055;-59
2022/08/23 06:14:04;;;;;;;5.75;3.00;;;;;;;;;;5051169;28;20405;-59
2022/08/23 06:16:32;;;;;;;9.60;3.72;;;;;;;;;;5052985;28;20451;-59
2022/08/23 06:19:01;;;;;;;7.25;3.10;;;;;;;;;;5055382;28;20467;-59
2022/08/23 06:21:27;;;;;;;9.65;3.85;;;;;;;;;;5054000;28;20041;-59
2022/08/23 06:23:53;;;;;;;4.72;2.92;;;;;;;;;;5054004;28;20037;-59
2022/08/23 06:26:21;;;;;;;7.88;3.35;;;;;;;;;;5052188;28;20083;-59
2022/08/23 06:28:48;;;;;;;8.32;3.50;;;;;;;;;;5052836;28;20116;-61
2022/08/23 06:31:14;;;;;;;9.20;3.22;;;;;;;;;;5054011;28;20096;-60
2022/08/23 06:33:41;;;;;;;7.15;3.08;;;;;;;;;;5052273;28;20032;-60
2022/08/23 06:36:16;;;;;;;10.88;3.40;;;;;;;;;;5049092;28;20164;-60
2022/08/23 06:38:44;;;;;;;7.43;3.25;;;;;;;;;;5042405;28;20029;-61
2022/08/23 06:41:11;;;;;;;7.00;3.28;;;;;;;;;;5046881;28;20029;-60
2022/08/23 06:43:37;;;;;;;8.05;3.08;;;;;;;;;;5052798;28;20070;-60
2022/08/23 06:46:11;;;;;;;10.60;3.47;;;;;;;;;;5054034;28;20037;-60
2022/08/23 06:48:37;;;;;;;8.80;2.97;;;;;;;;;;5052576;28;20039;-59
2022/08/23 06:51:08;;;;;;;8.55;3.00;;;;;;;;;;5053713;28;20112;-60
2022/08/23 06:53:34;;;;;;;6.63;3.45;;;;;;;;;;5053524;28;20021;-59
2022/08/23 06:56:00;;;;;;;7.18;3.17;;;;;;;;;;5054075;28;20477;-59
2022/08/23 06:58:26;;;;;;;9.00;3.55;;;;;;;;;;5051610;28;20376;-59
2022/08/23 07:00:52;;;;;;;10.27;3.33;;;;;;;;;;5053655;28;20028;-59
2022/08/23 07:03:18;;;;;;;6.15;2.75;;;;;;;;;;5054131;28;20025;-59
2022/08/23 07:05:44;;;;;;;5.03;2.85;;;;;;;;;;5053885;28;20472;-60
2022/08/23 07:08:10;;;;;;;10.35;3.03;;;;;;;;;;5053487;28;20455;-60
2022/08/23 07:10:36;;;;;;;5.70;2.75;;;;;;;;;;5053452;28;20036;-59
2022/08/23 07:13:03;;;;;;;4.13;2.58;;;;;;;;;;5049971;28;20040;-60
2022/08/23 07:15:29;;;;;;;7.72;2.70;;;;;;;;;;5052432;28;20060;-60
2022/08/23 07:17:55;;;;;;;4.75;2.70;;;;;;;;;;5047002;28;20021;-59
2022/08/23 07:20:21;;;;;;;6.13;2.55;;;;;;;;;;5053387;28;20025;-59
2022/08/23 07:22:47;;;;;;;8.13;2.80;;;;;;;;;;5049827;28;20443;-60
2022/08/23 07:25:13;;;;;;;8.60;2.55;;;;;;;;;;5052799;28;20040;-60
2022/08/23 07:27:39;;;;;;;5.88;2.30;;;;;;;;;;5047324;28;20083;-60
2022/08/23 07:30:05;;;;;;;9.23;2.75;;;;;;;;;;5053044;28;20041;-59
2022/08/23 07:32:31;;;;;;;8.98;2.50;;;;;;;;;;5050599;28;20020;-60
2022/08/23 07:34:57;;;;;;;5.43;2.38;;;;;;;;;;5052803;28;20029;-60
2022/08/23 07:37:24;;;;;;;4.45;2.60;;;;;;;;;;5053110;28;20078;-60
2022/08/23 07:39:50;;;;;;;8.88;2.90;;;;;;;;;;5052907;28;20029;-60
2022/08/23 07:42:16;;;;;;;6.47;2.20;;;;;;;;;;5053538;28;20032;-59
2022/08/23 07:44:42;;;;;;;7.05;2.33;;;;;;;;;;5053162;28;20047;-59
2022/08/23 07:47:08;;;;;;;6.78;2.45;;;;;;;;;;5045283;28;20025;-60
2022/08/23 07:49:34;;;;;;;7.50;2.33;;;;;;;;;;5051727;28;20033;-60
2022/08/23 07:52:00;;;;;;;6.95;2.88;;;;;;;;;;5052316;28;20037;-60
2022/08/23 07:54:27;;;;;;;7.22;2.65;;;;;;;;;;5053198;28;20785;-60
2022/08/23 07:56:53;;;;;;;8.77;2.17;;;;;;;;;;5053347;28;20060;-60
2022/08/23 07:59:19;;;;;;;6.22;2.30;;;;;;;;;;5052988;28;20040;-60
2022/08/23 08:01:45;;;;;;;6.78;2.22;;;;;;;;;;5052904;28;20028;-60
2022/08/23 08:04:11;;;;;;;5.80;2.20;;;;;;;;;;5050093;28;20423;-60
2022/08/23 08:06:42;;;;;;;6.05;2.47;;;;;;;;;;5051475;28;20060;-60
2022/08/23 08:09:09;;;;;;;7.57;2.28;;;;;;;;;;5048701;28;20064;-60
2022/08/23 08:11:35;;;;;;;11.15;3.00;;;;;;;;;;5051676;28;20143;-60
2022/08/23 08:14:03;;;;;;;5.38;1.92;;;;;;;;;;5048032;28;20099;-60
2022/08/23 08:16:30;;;;;;;6.53;1.80;;;;;;;;;;5050136;28;20025;-59
2022/08/23 08:18:58;;;;;;;6.88;2.08;;;;;;;;;;5049814;28;20036;-59
2022/08/23 08:21:25;;;;;;;5.38;1.77;;;;;;;;;;5047273;28;20025;-58
2022/08/23 08:23:51;;;;;;;6.82;1.90;;;;;;;;;;5052480;28;20112;-59
2022/08/23 08:26:17;;;;;;;5.22;2.15;;;;;;;;;;5045583;28;20021;-58
2022/08/23 08:28:44;;;;;;;3.55;1.85;;;;;;;;;;5051819;28;20223;-59
2022/08/23 08:31:10;;;;;;;4.28;2.10;;;;;;;;;;5052056;28;20119;-60
2022/08/23 08:33:37;;;;;;;18.25;2.50;;;;;;;;;;5051131;28;20035;-60
2022/08/23 08:36:03;;;;;;;4.68;2.08;;;;;;;;;;5050154;28;20087;-60
2022/08/23 08:38:30;;;;;;;5.60;2.00;;;;;;;;;;5050193;28;20107;-60
2022/08/23 08:41:11;;;;;;;6.88;2.17;;;;;;;;;;5050996;28;20044;-60
2022/08/23 08:43:37;;;;;;;6.30;1.80;;;;;;;;;;5052266;28;20093;-60
2022/08/23 08:46:15;;;;;;;4.63;1.92;;;;;;;;;;5052320;28;20029;-60
2022/08/23 08:48:43;;;;;;;4.15;1.65;;;;;;;;;;5052430;28;20025;-60
2022/08/23 08:51:16;;;;;;;9.30;2.30;;;;;;;;;;5051910;28;20511;-60
2022/08/23 08:53:44;;;;;;;8.48;2.22;;;;;;;;;;5052219;28;20071;-60
2022/08/23 08:56:28;;;;;;;6.68;1.80;;;;;;;;;;5050006;28;20031;-60
2022/08/23 08:58:57;;;;;;;5.47;1.88;;;;;;;;;;5050871;28;20488;-59
2022/08/23 09:01:25;;;;;;;6.22;1.98;;;;;;;;;;5051654;28;20120;-60
2022/08/23 09:03:51;;;;;;;3.22;1.67;;;;;;;;;;5051450;28;20024;-60
2022/08/23 09:06:43;;;;;;;6.63;1.98;;;;;;;;;;5051988;28;20388;-60
2022/08/23 09:09:15;;;;;;;4.50;2.22;;;;;;;;;;5051792;28;20075;-60
2022/08/23 09:12:00;;;;;;;4.68;1.98;;;;;;;;;;5045534;28;20027;-60
2022/08/23 09:14:37;;;;;;;5.38;1.85;;;;;;;;;;5049595;28;20025;-60
2022/08/23 09:17:04;;;;;;;4.22;1.88;;;;;;;;;;5052018;28;20071;-60
2022/08/23 09:19:32;;;;;;;7.90;1.65;;;;;;;;;;5051774;28;20704;-60
2022/08/23 09:22:00;;;;;;;3.95;1.55;;;;;;;;;;5051355;28;20477;-60
2022/08/23 09:24:27;;;;;;;4.97;1.63;;;;;;;;;;5051862;28;20111;-60
2022/08/23 09:26:53;;;;;;;4.53;1.58;;;;;;;;;;5050023;28;20029;-60
2022/08/23 09:29:25;;;;;;;3.08;1.50;;;;;;;;;;5050241;28;20388;-60
2022/08/23 09:31:52;;;;;;;4.05;1.80;;;;;;;;;;5038845;28;20111;-60
2022/08/23 09:34:35;;;;;;;9.60;1.73;;;;;;;;;;5051681;28;20404;-60
2022/08/23 09:37:12;;;;;;;6.60;1.83;;;;;;;;;;5051521;28;20029;-60
2022/08/23 09:39:40;;;;;;;3.40;1.33;;;;;;;;;;5051589;28;20469;-60
2022/08/23 09:42:28;;;;;;;3.97;1.48;;;;;;;;;;5049478;28;20112;-60
2022/08/23 09:44:55;;;;;;;4.50;1.77;;;;;;;;;;5046386;28;20042;-60
2022/08/23 09:47:30;;;;;;;4.07;1.75;;;;;;;;;;5046261;28;20082;-60
2022/08/23 09:49:57;;;;;;;5.03;1.67;;;;;;;;;;5051186;28;20083;-60
2022/08/23 09:52:31;;;;;;;3.17;1.60;;;;;;;;;;5050994;28;20040;-60
2022/08/23 09:54:59;;;;;;;4.07;1.48;;;;;;;;;;5042081;28;20722;-60
2022/08/23 09:57:27;;;;;;;5.90;1.92;;;;;;;;;;5051226;28;20033;-59
2022/08/23 09:59:55;;;;;;;4.45;1.40;;;;;;;;;;5050939;28;20452;-60
2022/08/23 10:02:21;;;;;;;2.30;1.25;;;;;;;;;;5049507;28;20098;-60
2022/08/23 10:04:56;;;;;;;4.53;1.52;;;;;;;;;;5048140;28;20966;-60
2022/08/23 10:07:32;;;;;;;3.42;1.80;;;;;;;;;;5047051;28;20055;-60
2022/08/23 10:10:18;;;;;;;3.45;1.48;;;;;;;;;;5050539;28;20451;-60
2022/08/23 10:12:44;;;;;;;4.53;1.52;;;;;;;;;;5042668;28;20048;-60
2022/08/23 10:15:10;;;;;;;4.60;1.38;;;;;;;;;;5046777;28;20107;-61
2022/08/23 10:17:48;;;;;;;5.82;1.65;;;;;;;;;;5050992;28;20112;-60
2022/08/23 10:20:22;;;;;;;6.18;1.50;;;;;;;;;;5045960;28;20055;-61
2022/08/23 10:22:54;;;;;;;4.88;1.15;;;;;;;;;;5048141;28;20072;-60
2022/08/23 10:25:29;;;;;;;4.20;1.35;;;;;;;;;;5046199;28;20078;-60
2022/08/23 10:30:53;;;;;;;6.53;1.27;;;;;;;;;;5050801;28;20079;-60
2022/08/23 10:33:22;;;;;;;3.65;1.13;;;;;;;;;;5041512;28;20025;-60
2022/08/23 10:36:02;;;;;;;3.45;1.33;;;;;;;;;;5044160;28;20041;-60
2022/08/23 10:38:45;;;;;;;2.38;1.40;;;;;;;;;;5049262;28;20039;-60
2022/08/23 10:41:32;;;;;;;3.28;1.42;;;;;;;;;;5046458;28;20017;-60
2022/08/23 10:44:04;;;;;;;5.60;1.73;;;;;;;;;;5044672;28;20029;-60
2022/08/23 10:46:32;;;;;;;2.72;1.30;;;;;;;;;;5044054;28;20100;-60
2022/08/23 10:48:59;;;;;;;2.97;1.05;;;;;;;;;;5050696;28;20140;-60
2022/08/23 10:51:28;;;;;;;4.15;1.30;;;;;;;;;;5048686;28;20071;-60
2022/08/23 10:53:58;;;;;;;2.80;1.00;;;;;;;;;;5042698;28;20377;-61
2022/08/23 10:56:25;;;;;;;2.67;1.13;;;;;;;;;;5051014;28;20059;-60
2022/08/23 10:58:51;;;;;;;3.75;1.08;;;;;;;;;;5050726;28;20029;-60
2022/08/23 11:01:24;;;;;;;5.07;1.35;;;;;;;;;;5049623;28;20480;-59
2022/08/23 11:04:00;;;;;;;3.58;0.82;;;;;;;;;;5052684;28;20032;-57
2022/08/23 11:06:26;;;;;;;2.72;1.00;;;;;;;;;;5054218;28;20079;-58
2022/08/23 11:09:18;;;;;;;2.92;0.90;;;;;;;;;;5052427;28;20057;-58
2022/08/23 11:11:49;;;;;;;4.32;1.33;;;;;;;;;;5020635;28;20102;-60
2022/08/23 11:14:27;;;;;;;5.63;1.20;;;;;;;;;;5053696;28;20036;-60
2022/08/23 11:17:00;;;;;;;4.57;1.13;;;;;;;;;;5050045;28;20029;-58
2022/08/23 11:19:46;;;;;;;3.45;0.90;;;;;;;;;;5050322;28;20021;-61
2022/08/23 11:22:26;;;;;;;4.32;1.15;;;;;;;;;;5041863;28;20033;-60
2022/08/23 11:25:07;;;;;;;3.55;0.95;;;;;;;;;;5053662;28;20107;-60
2022/08/23 11:27:38;;;;;;;4.32;0.95;;;;;;;;;;5050032;28;20528;-60
2022/08/23 11:30:22;;;;;;;3.67;0.88;;;;;;;;;;5053526;28;20473;-60
2022/08/23 11:32:49;;;;;;;1.77;0.80;;;;;;;;;;5052996;28;20029;-60
2022/08/23 11:35:34;;;;;;;3.30;1.05;;;;;;;;;;5053597;28;20499;-60
2022/08/23 11:38:01;;;;;;;3.45;1.13;;;;;;;;;;5053638;28;20512;-61
2022/08/23 11:40:59;;;;;;;4.50;1.13;;;;;;;;;;5053401;28;20528;-60
2022/08/23 11:43:25;;;;;;;4.07;1.10;;;;;;;;;;5009745;28;20037;-61
2022/08/23 11:45:51;;;;;;;4.40;1.13;;;;;;;;;;5048643;28;20037;-61
2022/08/23 11:48:35;;;;;;;3.60;1.00;;;;;;;;;;5052247;28;20503;-61
2022/08/23 11:51:15;;;;;;;2.78;0.90;;;;;;;;;;5051640;28;20041;-61
2022/08/23 11:53:45;;;;;;;2.00;0.63;;;;;;;;;;5052637;28;20025;-60
2022/08/23 11:56:16;;;;;;;5.55;1.55;;;;;;;;;;5039400;28;20392;-61
2022/08/23 11:58:52;;;;;;;4.75;1.20;;;;;;;;;;5046801;28;20553;-61
2022/08/23 12:01:27;;;;;;;3.90;0.93;;;;;;;;;;5049354;28;20090;-60
2022/08/23 12:03:55;;;;;;;2.63;0.90;;;;;;;;;;5053394;28;20028;-61
2022/08/23 12:06:21;;;;;;;4.18;0.70;;;;;;;;;;5050310;28;20058;-60
2022/08/23 12:08:47;;;;;;;3.28;0.70;;;;;;;;;;5051452;28;20463;-61
2022/08/23 12:11:14;;;;;;;2.72;0.70;;;;;;;;;;5053127;28;20058;-60
2022/08/23 12:14:01;;;;;;;2.13;0.80;;;;;;;;;;5051965;28;20039;-61
2022/08/23 12:16:29;;;;;;;1.50;0.47;;;;;;;;;;5052084;28;20466;-60
2022/08/23 12:18:57;;;;;;;4.80;0.80;;;;;;;;;;5049658;28;20035;-59
2022/08/23 12:21:41;;;;;;;3.35;0.90;;;;;;;;;;5051197;28;20096;-61
2022/08/23 12:24:15;;;;;;;1.77;0.73;;;;;;;;;;5051333;28;20376;-61
2022/08/23 12:26:41;;;;;;;1.67;0.63;;;;;;;;;;5048526;28;20392;-58
2022/08/23 12:29:31;;;;;;;3.05;0.63;;;;;;;;;;5042548;28;20025;-59
2022/08/23 12:32:03;;;;;;;2.95;0.70;;;;;;;;;;5048863;28;20037;-59
2022/08/23 12:34:37;;;;;;;3.60;0.93;;;;;;;;;;5049940;28;20033;-59
2022/08/23 12:37:13;;;;;;;1.65;0.63;;;;;;;;;;5051074;28;20074;-59
2022/08/23 12:39:51;;;;;;;3.92;0.80;;;;;;;;;;5050091;28;20029;-60
2022/08/23 12:42:26;;;;;;;3.10;0.98;;;;;;;;;;5048793;28;20017;-61
2022/08/23 12:45:12;;;;;;;2.97;0.90;;;;;;;;;;5046278;28;20108;-61
2022/08/23 12:47:41;;;;;;;2.95;0.88;;;;;;;;;;5046002;28;20503;-61
2022/08/23 12:50:12;;;;;;;1.33;0.60;;;;;;;;;;5050587;28;20036;-61
2022/08/23 12:52:39;;;;;;;3.33;0.70;;;;;;;;;;5045852;28;20032;-59
2022/08/23 12:55:17;;;;;;;7.03;1.02;;;;;;;;;;5047106;28;20099;-61
2022/08/23 12:57:49;;;;;;;4.25;0.95;;;;;;;;;;5052373;28;20029;-61
2022/08/23 13:00:27;;;;;;;2.10;0.70;;;;;;;;;;5051982;28;20025;-60
2022/08/23 13:03:07;;;;;;;2.42;0.88;;;;;;;;;;5052116;28;20501;-60
2022/08/23 13:05:36;;;;;;;3.92;0.80;;;;;;;;;;5050444;28;20025;-60
2022/08/23 13:08:05;;;;;;;4.93;0.93;;;;;;;;;;5052019;28;20025;-61
2022/08/23 13:10:31;;;;;;;5.07;0.65;;;;;;;;;;5051767;28;20441;-61
2022/08/23 13:12:57;;;;;;;2.50;0.73;;;;;;;;;;5043874;28;20029;-61
2022/08/23 13:15:44;;;;;;;2.08;0.90;;;;;;;;;;5051794;28;20106;-59
2022/08/23 13:18:10;;;;;;;3.40;0.70;;;;;;;;;;5052029;28;20385;-61
2022/08/23 13:20:36;;;;;;;3.80;1.00;;;;;;;;;;5050127;28;20028;-61
2022/08/23 13:23:04;;;;;;;3.08;0.80;;;;;;;;;;5051663;28;20024;-60
2022/08/23 13:25:35;;;;;;;4.60;0.95;;;;;;;;;;5051139;28;20098;-61
2022/08/23 13:28:03;;;;;;;1.90;0.60;;;;;;;;;;5051598;28;20024;-61
2022/08/23 13:30:33;;;;;;;3.90;1.02;;;;;;;;;;5050952;28;20037;-61
2022/08/23 13:33:05;;;;;;;2.13;0.90;;;;;;;;;;5051829;28;20024;-61
2022/08/23 13:35:36;;;;;;;2.37;0.80;;;;;;;;;;5049880;28;20108;-60
2022/08/23 13:38:02;;;;;;;2.58;0.88;;;;;;;;;;5051350;28;20342;-60
2022/08/23 13:40:30;;;;;;;3.05;0.95;;;;;;;;;;5044821;28;20029;-61
2022/08/23 13:43:01;;;;;;;2.60;0.90;;;;;;;;;;5047965;28;20036;-59
2022/08/23 13:45:29;;;;;;;2.25;0.70;;;;;;;;;;5047954;28;20029;-61
2022/08/23 13:47:57;;;;;;;2.40;0.80;;;;;;;;;;5050967;28;20020;-60
2022/08/23 13:50:25;;;;;;;2.47;0.80;;;;;;;;;;5048935;28;20052;-61
2022/08/23 13:52:51;;;;;;;3.58;0.80;;;;;;;;;;5049869;28;20040;-61
2022/08/23 13:55:17;;;;;;;2.60;0.63;;;;;;;;;;5050048;28;20048;-59
2022/08/23 13:57:43;;;;;;;7.05;0.90;;;;;;;;;;5048324;28;20461;-59
2022/08/23 14:00:10;;;;;;;2.10;0.60;;;;;;;;;;5050600;28;20033;-58
2022/08/23 14:02:36;;;;;;;1.88;0.82;;;;;;;;;;5050020;28;20058;-59
2022/08/23 14:05:04;;;;;;;1.70;0.75;;;;;;;;;;5045318;28;20029;-59
2022/08/23 14:07:30;;;;;;;3.63;0.85;;;;;;;;;;5047693;28;20037;-58
2022/08/23 14:09:56;;;;;;;2.05;0.50;;;;;;;;;;5039788;28;20053;-59
2022/08/23 14:12:24;;;;;;;4.50;0.98;;;;;;;;;;5045523;28;20025;-59
2022/08/23 14:14:50;;;;;;;4.07;0.90;;;;;;;;;;5046093;28;20123;-59
2022/08/23 14:17:16;;;;;;;1.83;1.00;;;;;;;;;;5047270;28;20025;-59
2022/08/23 14:19:45;;;;;;;1.95;0.70;;;;;;;;;;5045250;28;20048;-59
2022/08/23 14:22:12;;;;;;;3.38;0.93;;;;;;;;;;5055069;28;20088;-60
2022/08/23 14:24:38;;;;;;;2.85;0.77;;;;;;;;;;5049536;28;20033;-60
2022/08/23 14:27:04;;;;;;;2.30;0.60;;;;;;;;;;5050500;28;20044;-61
2022/08/23 14:29:30;;;;;;;3.05;0.95;;;;;;;;;;5047376;28;20037;-61
2022/08/23 14:31:58;;;;;;;1.48;0.65;;;;;;;;;;5050427;28;20037;-60
2022/08/23 14:34:24;;;;;;;4.75;1.05;;;;;;;;;;5051279;28;20032;-61
2022/08/23 14:36:52;;;;;;;2.70;0.88;;;;;;;;;;5055065;28;20112;-60
2022/08/23 14:39:18;;;;;;;5.00;0.82;;;;;;;;;;5063317;28;20036;-61
2022/08/23 14:41:44;;;;;;;5.13;0.75;;;;;;;;;;5064479;28;20017;-61
2022/08/23 14:44:12;;;;;;;1.55;0.70;;;;;;;;;;5052391;28;20042;-61
2022/08/23 14:46:38;;;;;;;2.05;0.82;;;;;;;;;;5051311;28;20919;-58
2022/08/23 14:49:04;;;;;;;4.93;1.08;;;;;;;;;;5053417;28;20118;-59
2022/08/23 14:51:35;;;;;;;2.83;0.85;;;;;;;;;;5049964;28;20429;-59
2022/08/23 14:54:02;;;;;;;1.73;0.63;;;;;;;;;;5052447;28;20066;-59
2022/08/23 14:56:28;;;;;;;4.80;0.93;;;;;;;;;;5050578;28;20120;-61
2022/08/23 14:58:54;;;;;;;2.83;0.70;;;;;;;;;;5054160;28;20111;-61
2022/08/23 15:01:21;;;;;;;1.88;0.63;;;;;;;;;;5054271;28;20025;-61
2022/08/23 15:03:47;;;;;;;5.43;0.70;;;;;;;;;;5053208;28;20021;-61